^^
B2 Weather Station Historical Data
Daily Summary for June 10, 2018 Units:  English    Metric   Both
Daily Weekly Monthly Yearly Custom
  High: Low: Average:
Temperature: 72.5 °F 63.6 °F 67.3 °F
Dew Point: 68.8 °F 61.5 °F 65.4 °F
Humidity: 95% 87% 94%
Wind Speed: 21.0mph 0.0mph 3.8mph
Wind Gust: 13.4mph - -
Wind- - SSE
Pressure: 29.92 in 29.75 in -
Precipitation: 0.63 in    
Historical Graphs
 
 
Tabular Data for June 10, 2018
Time Temperature Dew Point Pressure Wind Wind Speed Wind Gust Humidity Rainfall Rate (Hourly) solar
00:04 63.6 °F 61.5 °F 29.89 in Calm     93% 0.00 in 0.00 W/m2
00:09 63.7 °F 61.6 °F 29.88 in East 1.0 mph   93% 0.00 in 0.00 W/m2
00:14 64.0 °F 61.9 °F 29.87 in East 5.8 mph 1.8 mph 93% 0.00 in 0.00 W/m2
00:19 64.1 °F 62.3 °F 29.87 in ENE 4.6 mph 3.5 mph 94% 0.00 in 0.00 W/m2
00:24 64.3 °F 62.5 °F 29.88 in East 6.0 mph 3.1 mph 94% 0.00 in 0.00 W/m2
00:29 64.4 °F 62.3 °F 29.88 in East 6.9 mph 1.4 mph 93% 0.00 in 0.00 W/m2
00:34 64.5 °F 62.4 °F 29.88 in ENE 4.6 mph   93% 0.00 in 0.00 W/m2
00:39 64.5 °F 62.4 °F 29.89 in Calm     93% 0.00 in 0.00 W/m2
00:44 64.5 °F 62.4 °F 29.89 in Calm     93% 0.00 in 0.00 W/m2
00:49 64.5 °F 62.4 °F 29.89 in Calm     93% 0.00 in 0.00 W/m2
00:54 64.5 °F 62.4 °F 29.89 in Calm     93% 0.00 in 0.00 W/m2
00:59 64.4 °F 62.3 °F 29.89 in Calm     93% 0.00 in 0.00 W/m2
01:04 64.3 °F 62.2 °F 29.88 in Calm     93% 0.00 in 0.00 W/m2
01:09 64.2 °F 62.1 °F 29.89 in Calm     93% 0.00 in 0.00 W/m2
01:14 64.1 °F 62.0 °F 29.88 in Calm     93% 0.00 in 0.00 W/m2
01:19 64.0 °F 61.9 °F 29.88 in Calm     93% 0.00 in 0.00 W/m2
01:24 64.1 °F 62.3 °F 29.89 in Calm     94% 0.00 in 0.00 W/m2
01:29 64.1 °F 62.3 °F 29.88 in Calm     94% 0.00 in 0.00 W/m2
01:34 64.2 °F 62.4 °F 29.89 in Calm     94% 0.00 in 0.00 W/m2
01:39 64.2 °F 62.4 °F 29.88 in Calm     94% 0.00 in 0.00 W/m2
01:44 64.4 °F 62.6 °F 29.88 in Calm     94% 0.00 in 0.00 W/m2
01:49 64.5 °F 62.7 °F 29.87 in Calm     94% 0.00 in 0.00 W/m2
01:54 64.7 °F 62.9 °F 29.87 in Calm     94% 0.00 in 0.00 W/m2
01:59 64.8 °F 63.0 °F 29.87 in Calm     94% 0.00 in 0.00 W/m2
02:04 64.7 °F 62.9 °F 29.86 in Calm     94% 0.00 in 0.00 W/m2
02:09 64.8 °F 63.0 °F 29.87 in Calm     94% 0.00 in 0.00 W/m2
02:14 64.9 °F 63.1 °F 29.87 in Calm     94% 0.00 in 0.00 W/m2
02:19 65.0 °F 63.2 °F 29.87 in Calm     94% 0.00 in 0.00 W/m2
02:24 65.3 °F 63.5 °F 29.86 in Calm     94% 0.00 in 0.00 W/m2
02:29 65.5 °F 63.7 °F 29.86 in Calm     94% 0.00 in 0.00 W/m2
02:34 65.6 °F 63.8 °F 29.86 in Calm     94% 0.00 in 0.00 W/m2
02:39 65.6 °F 63.8 °F 29.86 in Calm     94% 0.00 in 0.00 W/m2
02:44 65.6 °F 63.8 °F 29.87 in Calm     94% 0.00 in 0.00 W/m2
02:49 65.7 °F 63.9 °F 29.86 in Calm     94% 0.00 in 0.00 W/m2
02:54 65.8 °F 64.0 °F 29.86 in Calm     94% 0.00 in 0.00 W/m2
02:59 66.0 °F 64.2 °F 29.86 in SSE 5.8 mph 4.4 mph 94% 0.01 in 0.00 W/m2
03:04 66.0 °F 64.2 °F 29.86 in South 3.5 mph 0.8 mph 94% 0.01 in 0.00 W/m2
03:09 66.1 °F 64.3 °F 29.85 in SE 3.5 mph 0.1 mph 94% 0.01 in 0.00 W/m2
03:14 66.0 °F 64.2 °F 29.84 in ESE 3.5 mph 2.8 mph 94% 0.02 in 0.00 W/m2
03:19 66.1 °F 64.3 °F 29.84 in Calm     94% 0.03 in 0.00 W/m2
03:24 66.1 °F 64.3 °F 29.83 in Calm     94% 0.04 in 0.00 W/m2
03:29 66.5 °F 65.0 °F 29.81 in ENE 5.8 mph 3.7 mph 95% 0.05 in 0.00 W/m2
03:34 66.7 °F 65.2 °F 29.82 in Calm     95% 0.05 in 0.00 W/m2
03:39 66.9 °F 65.4 °F 29.81 in Calm     95% 0.05 in 0.00 W/m2
03:44 67.2 °F 65.7 °F 29.81 in Calm     95% 0.05 in 0.00 W/m2
03:49 67.3 °F 65.8 °F 29.81 in Calm     95% 0.05 in 0.00 W/m2
03:54 67.4 °F 65.9 °F 29.81 in Calm     95% 0.05 in 0.00 W/m2
03:59 67.5 °F 66.0 °F 29.84 in Calm     95% 0.04 in 0.00 W/m2
04:04 67.7 °F 66.2 °F 29.89 in WNW 11.5 mph 6.2 mph 95% 0.04 in 0.00 W/m2
04:09 67.9 °F 66.4 °F 29.91 in WNW 18.4 mph 9.4 mph 95% 0.04 in 0.00 W/m2
04:14 67.1 °F 65.3 °F 29.92 in WSW 21.0 mph 13.4 mph 94% 0.11 in 0.00 W/m2
04:19 66.2 °F 64.4 °F 29.92 in West 17.3 mph 7.9 mph 94% 0.21 in 0.00 W/m2
04:24 65.6 °F 63.8 °F 29.90 in NW 10.4 mph 5.9 mph 94% 0.27 in 0.00 W/m2
04:29 65.4 °F 63.9 °F 29.90 in WNW 17.3 mph 4.4 mph 95% 0.30 in 0.00 W/m2
04:34 65.2 °F 63.4 °F 29.89 in NW 13.8 mph 4.2 mph 94% 0.32 in 0.00 W/m2
04:39 65.2 °F 63.4 °F 29.88 in WNW 3.5 mph 0.4 mph 94% 0.32 in 0.00 W/m2
04:44 65.1 °F 63.3 °F 29.87 in WNW 5.8 mph 1.6 mph 94% 0.33 in 0.00 W/m2
04:49 65.0 °F 63.5 °F 29.87 in NW 6.9 mph 2.7 mph 95% 0.33 in 0.00 W/m2
04:54 64.9 °F 63.4 °F 29.86 in NNW 9.2 mph 1.6 mph 95% 0.33 in 0.00 W/m2
04:59 64.8 °F 63.3 °F 29.85 in North 6.9 mph 5.0 mph 95% 0.34 in 0.00 W/m2
05:04 64.7 °F 63.2 °F 29.85 in NNE 3.5 mph 1.9 mph 95% 0.34 in 0.00 W/m2
05:09 64.7 °F 63.2 °F 29.84 in NE 3.5 mph 0.8 mph 95% 0.34 in 0.00 W/m2
05:14 64.6 °F 63.1 °F 29.82 in NNE 4.0 mph 1.6 mph 95% 0.27 in 0.00 W/m2
05:19 64.6 °F 63.1 °F 29.81 in NE 5.8 mph 2.6 mph 95% 0.16 in 0.00 W/m2
05:24 64.6 °F 63.1 °F 29.80 in NE 6.9 mph 4.1 mph 95% 0.09 in 0.00 W/m2
05:29 64.5 °F 63.0 °F 29.79 in ENE 7.0 mph 3.3 mph 95% 0.05 in 0.00 W/m2
05:34 64.6 °F 63.1 °F 29.79 in ENE 8.1 mph 2.0 mph 95% 0.03 in 0.00 W/m2
05:39 64.7 °F 63.2 °F 29.79 in ENE 9.2 mph 5.8 mph 95% 0.03 in 0.00 W/m2
05:44 64.7 °F 63.2 °F 29.78 in ENE 11.5 mph 7.6 mph 95% 0.03 in 0.00 W/m2
05:49 64.8 °F 63.3 °F 29.78 in ENE 9.2 mph 4.5 mph 95% 0.03 in 0.00 W/m2
05:54 64.8 °F 63.3 °F 29.78 in East 9.2 mph 3.1 mph 95% 0.03 in 0.00 W/m2
05:59 64.8 °F 63.3 °F 29.79 in Calm     95% 0.02 in 0.00 W/m2
06:04 64.8 °F 63.3 °F 29.79 in Calm     95% 0.02 in 0.00 W/m2
06:09 64.8 °F 63.3 °F 29.79 in Calm     95% 0.03 in 0.00 W/m2
06:14 64.8 °F 63.3 °F 29.80 in Calm     95% 0.02 in 5.00 W/m2
06:19 64.9 °F 63.4 °F 29.80 in Calm     95% 0.02 in 7.00 W/m2
06:24 64.9 °F 63.4 °F 29.80 in Calm     95% 0.03 in 11.00 W/m2
06:29 65.1 °F 63.6 °F 29.81 in South 3.5 mph   95% 0.04 in 7.00 W/m2
06:34 65.2 °F 63.7 °F 29.83 in SSW 3.0 mph 1.5 mph 95% 0.04 in 12.00 W/m2
06:39 65.3 °F 63.8 °F 29.82 in South 5.8 mph 4.7 mph 95% 0.04 in 26.00 W/m2
06:44 65.4 °F 63.9 °F 29.82 in SSE 5.8 mph 2.3 mph 95% 0.03 in 30.00 W/m2
06:49 65.4 °F 63.9 °F 29.81 in Calm     95% 0.03 in 21.00 W/m2
06:54 65.5 °F 64.0 °F 29.82 in SSE 5.0 mph 1.0 mph 95% 0.03 in 23.00 W/m2
06:59 65.6 °F 64.1 °F 29.81 in SSE 5.8 mph 3.8 mph 95% 0.03 in 44.00 W/m2
07:04 65.7 °F 64.2 °F 29.81 in SSE 6.9 mph 4.9 mph 95% 0.03 in 56.00 W/m2
07:09 65.8 °F 64.3 °F 29.81 in South 5.8 mph 3.2 mph 95% 0.02 in 67.00 W/m2
07:14 65.8 °F 64.3 °F 29.82 in South 6.0 mph 4.1 mph 95% 0.02 in 44.00 W/m2
07:19 65.9 °F 64.4 °F 29.83 in SSW 5.8 mph 5.4 mph 95% 0.02 in 33.00 W/m2
07:24 65.9 °F 64.4 °F 29.85 in SSW 4.6 mph   95% 0.01 in 11.00 W/m2
07:29 65.9 °F 64.4 °F 29.88 in Calm     95% 0.01 in 7.00 W/m2
07:34 66.0 °F 64.5 °F 29.90 in NW 11.5 mph 6.4 mph 95% 0.06 in 0.00 W/m2
07:39 65.9 °F 64.4 °F 29.86 in South 1.0 mph 0.4 mph 95% 0.10 in 5.00 W/m2
07:44 65.8 °F 64.3 °F 29.85 in Calm     95% 0.13 in 7.00 W/m2
07:49 65.8 °F 64.3 °F 29.83 in South 4.6 mph 3.2 mph 95% 0.14 in 9.00 W/m2
07:54 65.8 °F 64.3 °F 29.82 in Calm     95% 0.14 in 14.00 W/m2
07:59 65.8 °F 64.3 °F 29.83 in South 6.9 mph 4.8 mph 95% 0.14 in 25.00 W/m2
08:04 65.8 °F 64.3 °F 29.83 in SSW 6.9 mph 4.3 mph 95% 0.14 in 40.00 W/m2
08:09 65.9 °F 64.4 °F 29.84 in South 6.9 mph 1.6 mph 95% 0.14 in 51.00 W/m2
08:14 65.9 °F 64.4 °F 29.84 in South 5.8 mph 4.0 mph 95% 0.14 in 63.00 W/m2
08:19 65.8 °F 64.3 °F 29.84 in South 5.8 mph 2.9 mph 95% 0.14 in 62.00 W/m2
08:24 65.8 °F 64.3 °F 29.84 in South 6.0 mph 4.8 mph 95% 0.14 in 79.00 W/m2
08:29 65.8 °F 64.3 °F 29.85 in South 3.5 mph 3.3 mph 95% 0.13 in 97.00 W/m2
08:34 65.9 °F 64.4 °F 29.84 in South 3.5 mph 0.1 mph 95% 0.08 in 102.00 W/m2
08:39 65.9 °F 64.4 °F 29.85 in SSW 3.5 mph 0.7 mph 95% 0.04 in 70.00 W/m2
08:44 65.9 °F 64.4 °F 29.84 in SSE 5.8 mph 3.1 mph 95% 0.01 in 63.00 W/m2
08:49 65.8 °F 64.3 °F 29.84 in South 5.8 mph 3.1 mph 95% 0.00 in 54.00 W/m2
08:54 65.8 °F 64.3 °F 29.84 in South 6.9 mph 3.6 mph 95% 0.00 in 42.00 W/m2
08:59 65.7 °F 64.2 °F 29.84 in South 8.1 mph 1.2 mph 95% 0.00 in 33.00 W/m2
09:04 65.6 °F 64.1 °F 29.84 in South 5.8 mph 3.7 mph 95% 0.00 in 37.00 W/m2
09:09 65.6 °F 64.1 °F 29.83 in South 4.6 mph 3.6 mph 95% 0.00 in 44.00 W/m2
09:14 65.7 °F 64.2 °F 29.83 in SSE 5.8 mph 3.8 mph 95% 0.00 in 63.00 W/m2
09:19 65.9 °F 64.4 °F 29.83 in South 10.4 mph 2.4 mph 95% 0.00 in 91.00 W/m2
09:24 66.1 °F 64.6 °F 29.82 in SSW 5.8 mph 2.7 mph 95% 0.00 in 70.00 W/m2
09:29 66.2 °F 64.7 °F 29.80 in SE 6.0 mph 3.0 mph 95% 0.00 in 35.00 W/m2
09:34 66.3 °F 64.8 °F 29.81 in South 10.4 mph 6.2 mph 95% 0.02 in 39.00 W/m2
09:39 66.4 °F 64.9 °F 29.82 in South 8.1 mph 7.2 mph 95% 0.02 in 44.00 W/m2
09:44 66.4 °F 64.9 °F 29.82 in SSW 8.1 mph 3.7 mph 95% 0.02 in 60.00 W/m2
09:49 66.6 °F 65.1 °F 29.83 in South 3.5 mph 2.7 mph 95% 0.02 in 88.00 W/m2
09:54 66.7 °F 65.2 °F 29.82 in South 9.2 mph 3.0 mph 95% 0.02 in 120.00 W/m2
09:59 66.8 °F 65.3 °F 29.82 in SSE 9.2 mph 7.4 mph 95% 0.02 in 139.00 W/m2
10:04 66.9 °F 65.4 °F 29.83 in South 8.1 mph 2.1 mph 95% 0.02 in 142.00 W/m2
10:09 67.1 °F 65.6 °F 29.83 in South 8.1 mph 5.9 mph 95% 0.02 in 134.00 W/m2
10:14 67.3 °F 65.8 °F 29.83 in South 8.1 mph 1.8 mph 95% 0.02 in 91.00 W/m2
10:19 67.4 °F 65.9 °F 29.83 in SSW 6.9 mph 0.1 mph 95% 0.02 in 125.00 W/m2
10:24 67.4 °F 65.9 °F 29.82 in SSE 8.1 mph 3.5 mph 95% 0.02 in 91.00 W/m2
10:29 67.3 °F 65.8 °F 29.82 in South 8.1 mph 4.5 mph 95% 0.02 in 123.00 W/m2
10:34 67.4 °F 65.9 °F 29.81 in South 5.8 mph 3.8 mph 95% 0.01 in 193.00 W/m2
10:39 67.6 °F 66.1 °F 29.80 in SSW 8.1 mph 3.7 mph 95% 0.01 in 257.00 W/m2
10:44 67.8 °F 66.3 °F 29.80 in South 6.9 mph 2.2 mph 95% 0.01 in 241.00 W/m2
10:49 68.1 °F 66.6 °F 29.80 in SSW 3.5 mph 0.2 mph 95% 0.01 in 207.00 W/m2
10:54 68.1 °F 66.3 °F 29.81 in SSW 6.0 mph 2.7 mph 94% 0.01 in 190.00 W/m2
10:59 68.2 °F 66.7 °F 29.81 in SSE 10.4 mph 1.6 mph 95% 0.01 in 255.00 W/m2
11:04 68.3 °F 66.8 °F 29.80 in SSW 5.8 mph 0.6 mph 95% 0.01 in 264.00 W/m2
11:09 68.4 °F 66.6 °F 29.81 in SSW 6.9 mph 0.8 mph 94% 0.01 in 109.00 W/m2
11:14 68.3 °F 66.5 °F 29.82 in SW 6.9 mph 2.2 mph 94% 0.01 in 86.00 W/m2
11:19 68.3 °F 66.5 °F 29.82 in SSW 3.5 mph 2.3 mph 94% 0.01 in 95.00 W/m2
11:24 68.2 °F 66.4 °F 29.81 in South 6.9 mph 2.4 mph 94% 0.01 in 146.00 W/m2
11:29 68.4 °F 66.6 °F 29.80 in South 6.0 mph 2.3 mph 94% 0.01 in 288.00 W/m2
11:34 68.8 °F 67.0 °F 29.80 in South 6.9 mph 1.5 mph 94% 0.00 in 352.00 W/m2
11:39 69.2 °F 67.4 °F 29.80 in SSW 5.8 mph 1.3 mph 94% 0.00 in 441.00 W/m2
11:44 69.8 °F 68.0 °F 29.80 in SW 3.5 mph 3.6 mph 94% 0.00 in 462.00 W/m2
11:49 70.2 °F 67.8 °F 29.79 in SSW 6.9 mph 0.9 mph 92% 0.00 in 503.00 W/m2
11:54 70.8 °F 68.4 °F 29.79 in SSW 4.6 mph 0.9 mph 92% 0.00 in 529.00 W/m2
11:59 71.1 °F 68.3 °F 29.79 in SSW 3.5 mph 1.5 mph 91% 0.00 in 508.00 W/m2
12:04 71.5 °F 68.4 °F 29.79 in SSE 7.0 mph 2.5 mph 90% 0.00 in 577.00 W/m2
12:09 71.8 °F 68.4 °F 29.79 in SW 9.2 mph 2.2 mph 89% 0.00 in 543.00 W/m2
12:14 72.1 °F 68.7 °F 29.80 in SSE 6.9 mph 1.6 mph 89% 0.00 in 559.00 W/m2
12:19 72.2 °F 68.4 °F 29.80 in SSW 8.1 mph 3.6 mph 88% 0.00 in 536.00 W/m2
12:24 72.4 °F 68.6 °F 29.80 in SSW 2.3 mph 2.8 mph 88% 0.00 in 404.00 W/m2
12:29 72.4 °F 68.3 °F 29.81 in SW 2.3 mph 1.1 mph 87% 0.00 in 185.00 W/m2
12:34 72.3 °F 68.2 °F 29.81 in West 1.2 mph   87% 0.00 in 113.00 W/m2
12:39 72.1 °F 68.0 °F 29.81 in SSW 3.5 mph 0.3 mph 87% 0.00 in 135.00 W/m2
12:44 72.1 °F 68.0 °F 29.81 in SSW 3.5 mph 0.8 mph 87% 0.00 in 93.00 W/m2
12:49 72.0 °F 68.2 °F 29.80 in SSW 5.8 mph 2.7 mph 88% 0.00 in 350.00 W/m2
12:54 72.3 °F 68.5 °F 29.80 in WSW 3.5 mph   88% 0.00 in 281.00 W/m2
12:59 72.5 °F 68.4 °F 29.81 in WSW 3.5 mph   87% 0.00 in 146.00 W/m2
13:04 72.4 °F 68.3 °F 29.81 in SW 6.9 mph 0.3 mph 87% 0.00 in 139.00 W/m2
13:09 72.5 °F 68.7 °F 29.81 in WSW 3.5 mph 2.3 mph 88% 0.00 in 176.00 W/m2
13:14 72.4 °F 68.6 °F 29.81 in WSW 3.5 mph   88% 0.00 in 56.00 W/m2
13:19 72.4 °F 68.6 °F 29.81 in WSW 6.9 mph 3.9 mph 88% 0.00 in 63.00 W/m2
13:24 72.3 °F 68.5 °F 29.80 in SW 4.6 mph 2.0 mph 88% 0.00 in 105.00 W/m2
13:29 72.4 °F 68.6 °F 29.79 in SW 4.6 mph 0.4 mph 88% 0.00 in 111.00 W/m2
13:34 72.4 °F 68.6 °F 29.80 in WSW 9.2 mph 4.1 mph 88% 0.00 in 62.00 W/m2
13:39 72.3 °F 68.5 °F 29.80 in WSW 4.6 mph 1.7 mph 88% 0.00 in 67.00 W/m2
13:44 72.1 °F 68.3 °F 29.80 in WSW 8.1 mph 3.8 mph 88% 0.00 in 83.00 W/m2
13:49 72.0 °F 68.6 °F 29.80 in Calm     89% 0.00 in 60.00 W/m2
13:54 71.9 °F 68.5 °F 29.79 in WSW 4.6 mph   89% 0.00 in 60.00 W/m2
13:59 71.7 °F 68.3 °F 29.79 in Calm   1.8 mph 89% 0.00 in 33.00 W/m2
14:04 71.5 °F 68.1 °F 29.78 in SW 2.3 mph 1.1 mph 89% 0.00 in 51.00 W/m2
14:09 71.4 °F 68.3 °F 29.78 in Calm     90% 0.00 in 81.00 W/m2
14:14 71.4 °F 68.3 °F 29.77 in Calm     90% 0.00 in 100.00 W/m2
14:19 71.4 °F 68.3 °F 29.77 in Calm     90% 0.00 in 102.00 W/m2
14:24 71.5 °F 68.4 °F 29.76 in Calm     90% 0.00 in 91.00 W/m2
14:29 71.6 °F 68.8 °F 29.76 in Calm     91% 0.00 in 90.00 W/m2
14:34 71.6 °F 68.8 °F 29.76 in Calm     91% 0.00 in 90.00 W/m2
14:39 71.6 °F 68.8 °F 29.76 in Calm     91% 0.00 in 91.00 W/m2
14:44 71.5 °F 68.4 °F 29.77 in Calm     90% 0.00 in 56.00 W/m2
14:49 71.6 °F 68.8 °F 29.79 in Calm     91% 0.00 in 32.00 W/m2
14:54 71.5 °F 68.7 °F 29.79 in Calm     91% 0.00 in 26.00 W/m2
14:59 71.4 °F 68.6 °F 29.79 in South 2.3 mph 0.3 mph 91% 0.00 in 35.00 W/m2
15:04 71.3 °F 68.5 °F 29.79 in SSW 1.2 mph   91% 0.00 in 37.00 W/m2
15:09 71.2 °F 68.4 °F 29.79 in Calm     91% 0.00 in 26.00 W/m2
15:14 71.2 °F 68.4 °F 29.78 in Calm     91% 0.00 in 30.00 W/m2
15:19 71.1 °F 68.3 °F 29.78 in South 3.5 mph 0.6 mph 91% 0.00 in 23.00 W/m2
15:24 71.1 °F 68.7 °F 29.78 in South 2.3 mph 0.1 mph 92% 0.00 in 26.00 W/m2
15:29 71.0 °F 68.6 °F 29.78 in SSE 3.5 mph   92% 0.00 in 25.00 W/m2
15:34 70.8 °F 68.4 °F 29.77 in Calm     92% 0.00 in 12.00 W/m2
15:39 70.6 °F 68.2 °F 29.77 in Calm     92% 0.00 in 11.00 W/m2
15:44 70.5 °F 68.1 °F 29.77 in Calm     92% 0.00 in 18.00 W/m2
15:49 70.3 °F 68.2 °F 29.77 in Calm     93% 0.00 in 19.00 W/m2
15:54 70.2 °F 68.1 °F 29.76 in Calm     93% 0.00 in 19.00 W/m2
15:59 70.1 °F 68.0 °F 29.76 in Calm     93% 0.00 in 19.00 W/m2
16:04 70.0 °F 67.9 °F 29.77 in Calm     93% 0.00 in 18.00 W/m2
16:09 69.9 °F 67.8 °F 29.77 in Calm     93% 0.00 in 18.00 W/m2
16:14 69.8 °F 68.0 °F 29.78 in Calm     94% 0.00 in 16.00 W/m2
16:19 69.7 °F 67.9 °F 29.78 in Calm     94% 0.00 in 14.00 W/m2
16:24 69.7 °F 67.9 °F 29.78 in Calm     94% 0.00 in 16.00 W/m2
16:29 69.7 °F 67.9 °F 29.77 in Calm     94% 0.00 in 23.00 W/m2
16:34 69.7 °F 67.9 °F 29.78 in Calm     94% 0.00 in 30.00 W/m2
16:39 69.7 °F 67.9 °F 29.79 in Calm     94% 0.00 in 39.00 W/m2
16:44 69.8 °F 68.0 °F 29.79 in Calm     94% 0.00 in 35.00 W/m2
16:49 69.8 °F 68.0 °F 29.79 in NNE 2.0 mph 0.6 mph 94% 0.00 in 21.00 W/m2
16:54 69.4 °F 67.6 °F 29.78 in Calm     94% 0.00 in 40.00 W/m2
16:59 69.3 °F 67.5 °F 29.78 in NNE 3.0 mph 0.5 mph 94% 0.00 in 33.00 W/m2
17:04 69.1 °F 67.3 °F 29.78 in NNE 3.5 mph 2.2 mph 94% 0.01 in 28.00 W/m2
17:09 68.8 °F 67.0 °F 29.79 in NE 3.5 mph 0.3 mph 94% 0.01 in 30.00 W/m2
17:14 68.5 °F 66.7 °F 29.79 in NNE 5.8 mph 3.4 mph 94% 0.01 in 37.00 W/m2
17:19 68.3 °F 66.5 °F 29.79 in North 4.6 mph 2.1 mph 94% 0.01 in 25.00 W/m2
17:24 68.3 °F 66.8 °F 29.81 in North 5.0 mph 3.9 mph 95% 0.01 in 19.00 W/m2
17:29 68.0 °F 66.2 °F 29.79 in North 8.0 mph 2.6 mph 94% 0.01 in 32.00 W/m2
17:34 68.0 °F 66.5 °F 29.81 in North 6.9 mph 2.8 mph 95% 0.01 in 30.00 W/m2
17:39 67.9 °F 66.4 °F 29.82 in North 4.6 mph 1.0 mph 95% 0.01 in 26.00 W/m2
17:44 67.7 °F 66.2 °F 29.80 in NNE 4.6 mph 2.1 mph 95% 0.01 in 33.00 W/m2
17:49 67.6 °F 66.1 °F 29.77 in ENE 10.0 mph 5.6 mph 95% 0.01 in 56.00 W/m2
17:54 67.6 °F 66.1 °F 29.75 in NE 15.0 mph 9.0 mph 95% 0.02 in 42.00 W/m2
17:59 67.5 °F 66.0 °F 29.78 in NE 6.9 mph 3.4 mph 95% 0.02 in 32.00 W/m2
18:04 67.4 °F 65.9 °F 29.79 in NNE 9.2 mph 4.7 mph 95% 0.01 in 35.00 W/m2
18:09 67.4 °F 65.9 °F 29.79 in NE 6.9 mph 1.1 mph 95% 0.01 in 30.00 W/m2
18:14 67.3 °F 65.8 °F 29.79 in NNE 8.1 mph 2.6 mph 95% 0.01 in 30.00 W/m2
18:19 67.2 °F 65.7 °F 29.80 in NNE 7.0 mph 3.6 mph 95% 0.01 in 30.00 W/m2
18:24 67.2 °F 65.7 °F 29.79 in NNE 5.8 mph 1.1 mph 95% 0.01 in 23.00 W/m2
18:29 67.1 °F 65.6 °F 29.79 in NNE 5.8 mph 1.7 mph 95% 0.01 in 21.00 W/m2
18:34 67.2 °F 65.7 °F 29.79 in NNE 3.5 mph 2.4 mph 95% 0.01 in 23.00 W/m2
18:39 67.1 °F 65.6 °F 29.79 in NE 4.6 mph 4.0 mph 95% 0.01 in 19.00 W/m2
18:44 67.1 °F 65.6 °F 29.79 in NNE 6.9 mph 1.8 mph 95% 0.01 in 23.00 W/m2
18:49 67.1 °F 65.6 °F 29.78 in NE 5.8 mph 2.4 mph 95% 0.01 in 21.00 W/m2
18:54 67.1 °F 65.6 °F 29.78 in NNE 6.9 mph 1.5 mph 95% 0.00 in 23.00 W/m2
18:59 67.2 °F 65.7 °F 29.78 in NNE 8.0 mph 3.4 mph 95% 0.00 in 25.00 W/m2
19:04 67.1 °F 65.6 °F 29.78 in NNE 6.0 mph 3.3 mph 95% 0.00 in 19.00 W/m2
19:09 67.0 °F 65.5 °F 29.77 in NNE 10.4 mph 2.5 mph 95% 0.00 in 26.00 W/m2
19:14 67.0 °F 65.5 °F 29.77 in NNE 8.1 mph 4.9 mph 95% 0.00 in 23.00 W/m2
19:19 67.1 °F 65.6 °F 29.77 in North 6.9 mph 2.7 mph 95% 0.00 in 21.00 W/m2
19:24 67.0 °F 65.5 °F 29.77 in NNE 8.1 mph 4.0 mph 95% 0.00 in 23.00 W/m2
19:29 67.0 °F 65.5 °F 29.77 in North 4.6 mph 1.3 mph 95% 0.00 in 16.00 W/m2
19:34 67.0 °F 65.5 °F 29.77 in NNE 8.0 mph 2.4 mph 95% 0.00 in 14.00 W/m2
19:39 66.9 °F 65.4 °F 29.78 in North 8.1 mph 2.5 mph 95% 0.00 in 12.00 W/m2
19:44 66.9 °F 65.4 °F 29.78 in NNE 6.9 mph 2.2 mph 95% 0.00 in 7.00 W/m2
19:49 66.8 °F 65.3 °F 29.79 in NE 5.0 mph 3.4 mph 95% 0.00 in 9.00 W/m2
19:54 66.8 °F 65.3 °F 29.79 in NNE 1.2 mph   95% 0.00 in 5.00 W/m2
19:59 66.8 °F 65.3 °F 29.79 in NNE 3.5 mph 1.2 mph 95% 0.00 in 0.00 W/m2
20:04 66.7 °F 65.2 °F 29.79 in NE 3.5 mph   95% 0.00 in 0.00 W/m2
20:09 66.8 °F 65.3 °F 29.80 in NE 1.0 mph 0.6 mph 95% 0.00 in 0.00 W/m2
20:14 66.8 °F 65.3 °F 29.80 in Calm     95% 0.00 in 0.00 W/m2
20:19 66.8 °F 65.3 °F 29.79 in Calm     95% 0.00 in 0.00 W/m2
20:24 66.8 °F 65.3 °F 29.80 in Calm     95% 0.00 in 0.00 W/m2
20:29 66.9 °F 65.4 °F 29.79 in NE 1.2 mph   95% 0.00 in 0.00 W/m2
20:34 66.9 °F 65.4 °F 29.80 in Calm     95% 0.00 in 0.00 W/m2
20:39 66.9 °F 65.4 °F 29.80 in North 3.5 mph 0.8 mph 95% 0.00 in 0.00 W/m2
20:44 67.0 °F 65.5 °F 29.80 in NE 3.5 mph 0.3 mph 95% 0.00 in 0.00 W/m2
20:49 67.0 °F 65.5 °F 29.81 in Calm     95% 0.00 in 0.00 W/m2
20:54 67.0 °F 65.5 °F 29.82 in Calm     95% 0.00 in 0.00 W/m2
20:59 67.0 °F 65.5 °F 29.82 in Calm     95% 0.00 in 0.00 W/m2
21:04 67.0 °F 65.5 °F 29.82 in NE 3.5 mph   95% 0.00 in 0.00 W/m2
21:09 67.1 °F 65.6 °F 29.82 in Calm     95% 0.00 in 0.00 W/m2
21:14 67.0 °F 65.5 °F 29.82 in Calm     95% 0.00 in 0.00 W/m2
21:19 67.1 °F 65.6 °F 29.82 in Calm     95% 0.00 in 0.00 W/m2
21:24 67.1 °F 65.6 °F 29.82 in Calm     95% 0.00 in 0.00 W/m2
21:29 67.1 °F 65.6 °F 29.83 in Calm     95% 0.00 in 0.00 W/m2
21:34 67.1 °F 65.6 °F 29.83 in Calm     95% 0.00 in 0.00 W/m2
21:39 67.1 °F 65.6 °F 29.84 in Calm     95% 0.00 in 0.00 W/m2
21:44 67.1 °F 65.6 °F 29.84 in Calm   0.1 mph 95% 0.00 in 0.00 W/m2
21:49 67.1 °F 65.6 °F 29.83 in Calm     95% 0.00 in 0.00 W/m2
21:54 67.1 °F 65.6 °F 29.83 in Calm     95% 0.00 in 0.00 W/m2
21:59 67.1 °F 65.6 °F 29.83 in NNE 3.5 mph 1.6 mph 95% 0.00 in 0.00 W/m2
22:04 67.1 °F 65.6 °F 29.83 in Calm     95% 0.00 in 0.00 W/m2
22:09 67.1 °F 65.6 °F 29.83 in Calm     95% 0.00 in 0.00 W/m2
22:14 67.0 °F 65.5 °F 29.83 in NNE 1.2 mph   95% 0.00 in 0.00 W/m2
22:19 67.0 °F 65.5 °F 29.83 in Calm     95% 0.00 in 0.00 W/m2
22:24 67.0 °F 65.5 °F 29.83 in NNE 3.5 mph   95% 0.00 in 0.00 W/m2
22:29 67.0 °F 65.5 °F 29.83 in Calm     95% 0.00 in 0.00 W/m2
22:34 66.9 °F 65.4 °F 29.84 in Calm     95% 0.00 in 0.00 W/m2
22:39 66.9 °F 65.4 °F 29.83 in Calm     95% 0.00 in 0.00 W/m2
22:44 66.9 °F 65.4 °F 29.83 in Calm     95% 0.00 in 0.00 W/m2
22:49 66.9 °F 65.4 °F 29.83 in Calm     95% 0.00 in 0.00 W/m2
22:54 66.8 °F 65.3 °F 29.83 in Calm     95% 0.00 in 0.00 W/m2
22:59 66.8 °F 65.3 °F 29.83 in Calm     95% 0.00 in 0.00 W/m2
23:04 66.8 °F 65.3 °F 29.83 in Calm     95% 0.00 in 0.00 W/m2
23:09 66.6 °F 65.1 °F 29.82 in North 5.8 mph 1.3 mph 95% 0.00 in 0.00 W/m2
23:14 66.1 °F 64.6 °F 29.82 in NNE 4.6 mph 1.6 mph 95% 0.00 in 0.00 W/m2
23:19 65.8 °F 64.3 °F 29.82 in NE 5.0 mph 2.3 mph 95% 0.00 in 0.00 W/m2
23:24 65.6 °F 64.1 °F 29.82 in NNE 4.6 mph 0.5 mph 95% 0.00 in 0.00 W/m2
23:29 65.5 °F 64.0 °F 29.82 in NNE 4.6 mph 0.8 mph 95% 0.00 in 0.00 W/m2
23:34 65.4 °F 63.9 °F 29.82 in NNE 4.6 mph 0.8 mph 95% 0.00 in 0.00 W/m2
23:39 65.3 °F 63.8 °F 29.82 in NNE 3.5 mph 0.2 mph 95% 0.00 in 0.00 W/m2
23:44 65.2 °F 63.7 °F 29.82 in NNE 4.6 mph 1.4 mph 95% 0.00 in 0.00 W/m2
23:49 65.1 °F 63.6 °F 29.82 in North 3.5 mph 1.4 mph 95% 0.00 in 0.00 W/m2
23:54 65.0 °F 63.5 °F 29.82 in NE 3.5 mph 0.1 mph 95% 0.00 in 0.00 W/m2
23:59 64.9 °F 63.4 °F 29.82 in NNE 2.3 mph 0.1 mph 95% 0.00 in 0.00 W/m2
Bourbonnais, Illinois, USA
Compliments of Weather Underground - 4 mb